Time;durP1;ratioP1;P1;durP2;ratioP2;P2;SDS_P1;SDS_P2;PMS_P1;PMS_P2;Temp;Humidity;BMP_temperature;BMP_pressure;BME280_temperature;BME280_humidity;BME280_pressure;Samples;Min_cycle;Max_cycle;Signal;HPM_P1;HPM_P2
2023/06/13 05:00:33;;;;;;;7.67;4.00;;;19.20;97.20;;;;;;1713881;28;20588;-70
2023/06/13 05:01:26;;;;;;;4.05;3.60;;;19.20;97.20;;;;;;1713939;28;20208;-70
2023/06/13 05:02:17;;;;;;;4.22;3.83;;;19.20;97.20;;;;;;1713322;28;20197;-70
2023/06/13 05:03:09;;;;;;;4.07;3.38;;;19.20;97.20;;;;;;1715116;28;20633;-70
2023/06/13 05:04:01;;;;;;;5.70;3.72;;;19.20;97.20;;;;;;1715323;28;20198;-71
2023/06/13 05:04:52;;;;;;;4.90;3.58;;;19.20;97.20;;;;;;1714301;28;20584;-71
2023/06/13 05:05:44;;;;;;;6.15;3.90;;;19.20;97.20;;;;;;1713816;28;20206;-70
2023/06/13 05:06:37;;;;;;;5.18;3.80;;;19.20;97.20;;;;;;1713936;28;20577;-70
2023/06/13 05:07:30;;;;;;;9.98;4.10;;;19.20;97.20;;;;;;1707406;28;20672;-70
2023/06/13 05:08:21;;;;;;;4.75;3.60;;;19.20;97.20;;;;;;1713976;28;20574;-70
2023/06/13 05:09:14;;;;;;;6.88;3.97;;;19.20;97.20;;;;;;1717568;28;20211;-70
2023/06/13 05:10:05;;;;;;;4.43;3.70;;;19.30;97.20;;;;;;1714872;28;20214;-70
2023/06/13 05:10:58;;;;;;;8.50;3.95;;;19.30;97.20;;;;;;1715669;28;20235;-70
2023/06/13 05:11:49;;;;;;;6.03;3.92;;;19.30;97.20;;;;;;1715114;28;20225;-70
2023/06/13 05:12:40;;;;;;;10.03;3.80;;;19.30;97.20;;;;;;1713692;28;20202;-70
2023/06/13 05:13:31;;;;;;;4.32;3.92;;;19.30;97.20;;;;;;1712032;28;20209;-70
2023/06/13 05:14:23;;;;;;;5.37;3.90;;;19.30;97.20;;;;;;1710481;28;20191;-70
2023/06/13 05:15:14;;;;;;;4.68;4.13;;;19.40;97.20;;;;;;1706831;28;20234;-70
2023/06/13 05:16:07;;;;;;;5.93;3.43;;;19.40;97.20;;;;;;1706772;28;20205;-70
2023/06/13 05:17:01;;;;;;;5.95;3.03;;;19.40;97.20;;;;;;1710800;28;20198;-70
2023/06/13 05:17:54;;;;;;;5.57;4.00;;;19.40;97.20;;;;;;1713494;28;20190;-70
2023/06/13 05:18:46;;;;;;;6.80;4.38;;;19.40;97.20;;;;;;1713116;28;20216;-70
2023/06/13 05:19:38;;;;;;;9.63;3.85;;;19.40;97.20;;;;;;1713599;28;20206;-70
2023/06/13 05:20:30;;;;;;;9.82;3.70;;;19.50;97.20;;;;;;1713764;28;20313;-71
2023/06/13 05:21:21;;;;;;;5.50;3.78;;;19.50;97.20;;;;;;1713752;28;20672;-71
2023/06/13 05:22:12;;;;;;;4.45;3.25;;;19.50;97.20;;;;;;1713739;28;20206;-71
2023/06/13 05:23:04;;;;;;;5.47;4.10;;;19.50;97.20;;;;;;1713762;28;20201;-70
2023/06/13 05:23:54;;;;;;;6.72;3.58;;;19.50;97.20;;;;;;1713712;28;20213;-71
2023/06/13 05:24:47;;;;;;;12.13;4.00;;;19.50;97.20;;;;;;1713853;28;20229;-71
2023/06/13 05:25:37;;;;;;;6.40;3.97;;;19.60;97.20;;;;;;1713682;28;20700;-71
2023/06/13 05:26:29;;;;;;;9.10;3.90;;;19.60;97.20;;;;;;1713865;28;20567;-70
2023/06/13 05:27:20;;;;;;;6.47;3.50;;;19.60;97.20;;;;;;1710011;28;20234;-70
2023/06/13 05:28:11;;;;;;;10.57;4.23;;;19.60;97.20;;;;;;1706300;28;20658;-71
2023/06/13 05:29:04;;;;;;;6.80;3.95;;;19.60;97.20;;;;;;1709943;28;20206;-71
2023/06/13 05:29:56;;;;;;;8.88;3.78;;;19.60;97.20;;;;;;1709640;28;20225;-70
2023/06/13 05:30:48;;;;;;;7.70;3.47;;;19.60;97.20;;;;;;1709669;28;20237;-70
2023/06/13 05:31:41;;;;;;;4.85;3.35;;;19.60;97.20;;;;;;1709976;28;20229;-71
2023/06/13 05:32:31;;;;;;;4.60;3.80;;;19.60;97.20;;;;;;1709630;28;20216;-71
2023/06/13 05:33:23;;;;;;;4.10;3.20;;;19.60;97.20;;;;;;1709959;28;20204;-70
2023/06/13 05:34:14;;;;;;;6.78;3.65;;;19.60;97.20;;;;;;1709952;28;20590;-71
2023/06/13 05:35:08;;;;;;;6.13;3.50;;;19.70;97.20;;;;;;1706783;28;20725;-71
2023/06/13 05:36:00;;;;;;;12.10;4.00;;;19.70;97.20;;;;;;1708708;28;20450;-72
2023/06/13 05:36:52;;;;;;;6.90;3.30;;;19.70;97.20;;;;;;1713709;28;20210;-71
2023/06/13 05:37:43;;;;;;;9.35;3.85;;;19.70;97.20;;;;;;1709865;28;20198;-71
2023/06/13 05:38:36;;;;;;;8.48;3.60;;;19.70;97.20;;;;;;1706594;28;20207;-72
2023/06/13 05:39:27;;;;;;;5.80;3.60;;;19.70;97.20;;;;;;1706982;28;20206;-71
2023/06/13 05:40:19;;;;;;;7.00;2.97;;;19.70;97.20;;;;;;1707002;28;20202;-71
2023/06/13 05:41:09;;;;;;;8.25;3.65;;;19.70;97.20;;;;;;1707110;28;20226;-71
2023/06/13 05:42:01;;;;;;;4.93;3.77;;;19.70;97.20;;;;;;1712444;28;20197;-72
2023/06/13 05:42:52;;;;;;;6.18;3.60;;;19.70;97.20;;;;;;1713649;28;20233;-72
2023/06/13 05:43:43;;;;;;;6.20;3.37;;;19.70;97.20;;;;;;1713746;28;20213;-72
2023/06/13 05:44:34;;;;;;;6.57;3.78;;;19.70;97.20;;;;;;1713738;28;20228;-72
2023/06/13 05:45:26;;;;;;;4.80;3.13;;;19.70;97.20;;;;;;1712734;28;20198;-72
2023/06/13 05:46:17;;;;;;;8.30;3.72;;;19.70;97.20;;;;;;1706619;28;20202;-72
2023/06/13 05:47:10;;;;;;;8.80;3.87;;;19.70;97.20;;;;;;1706643;28;20202;-71
2023/06/13 05:48:01;;;;;;;8.35;3.45;;;19.70;97.20;;;;;;1705897;28;20958;-71
2023/06/13 05:48:53;;;;;;;9.07;4.57;;;19.70;97.20;;;;;;1706582;28;20917;-72
2023/06/13 05:49:44;;;;;;;4.20;3.35;;;19.70;97.20;;;;;;1709606;28;20308;-72
2023/06/13 05:50:35;;;;;;;8.17;3.57;;;19.70;97.20;;;;;;1708608;28;20309;-72
2023/06/13 05:51:26;;;;;;;9.50;3.92;;;19.70;97.20;;;;;;1706608;28;20233;-72
2023/06/13 05:52:18;;;;;;;5.07;3.50;;;19.80;97.20;;;;;;1706564;28;20202;-72
2023/06/13 05:53:10;;;;;;;7.03;3.85;;;19.80;97.20;;;;;;1709598;28;20242;-72
2023/06/13 05:54:01;;;;;;;6.05;3.72;;;19.80;97.20;;;;;;1708512;28;20538;-72
2023/06/13 05:54:52;;;;;;;6.63;3.65;;;19.80;97.20;;;;;;1710786;28;20206;-72
2023/06/13 05:55:44;;;;;;;13.90;4.47;;;19.80;97.20;;;;;;1711231;28;20208;-72
2023/06/13 05:56:36;;;;;;;16.85;4.57;;;19.80;97.20;;;;;;1710785;28;20237;-73
2023/06/13 05:57:39;;;;;;;16.00;3.92;;;19.80;97.20;;;;;;1710884;28;20726;-72
2023/06/13 05:58:30;;;;;;;8.60;3.80;;;19.80;97.20;;;;;;1710936;28;20198;-72
2023/06/13 05:59:21;;;;;;;10.00;4.07;;;19.80;97.20;;;;;;1709772;28;20221;-72
2023/06/13 06:00:13;;;;;;;15.30;5.38;;;19.80;97.20;;;;;;1713556;28;20754;-72
2023/06/13 06:01:05;;;;;;;12.07;4.25;;;19.90;97.20;;;;;;1714132;28;20799;-72
2023/06/13 06:01:56;;;;;;;24.13;5.03;;;19.90;97.20;;;;;;1713752;28;20255;-71
2023/06/13 06:02:50;;;;;;;8.80;3.30;;;19.90;97.20;;;;;;1715004;28;20206;-72
2023/06/13 06:03:41;;;;;;;6.60;3.75;;;19.90;97.20;;;;;;1709544;28;20230;-71
2023/06/13 06:04:32;;;;;;;8.00;3.40;;;19.90;97.20;;;;;;1708206;29;20207;-71
2023/06/13 06:05:24;;;;;;;11.50;3.92;;;19.90;97.20;;;;;;1709407;28;20209;-71
2023/06/13 06:06:15;;;;;;;7.95;3.55;;;19.90;97.20;;;;;;1714983;28;20282;-72
2023/06/13 06:07:06;;;;;;;25.60;6.10;;;19.90;97.20;;;;;;1709471;28;20692;-70
2023/06/13 06:07:58;;;;;;;6.85;3.85;;;19.90;97.20;;;;;;1707328;28;20285;-70
2023/06/13 06:08:50;;;;;;;5.60;3.58;;;20.00;97.20;;;;;;1710319;28;20222;-72
2023/06/13 06:09:41;;;;;;;8.52;3.33;;;19.90;97.20;;;;;;1710780;28;20198;-72
2023/06/13 06:10:32;;;;;;;26.60;6.50;;;20.00;97.20;;;;;;1710575;28;20229;-72
2023/06/13 06:11:24;;;;;;;15.67;3.90;;;20.00;97.20;;;;;;1707796;28;20218;-72
2023/06/13 06:12:15;;;;;;;25.90;5.15;;;20.00;97.20;;;;;;1710831;28;20240;-72
2023/06/13 06:13:07;;;;;;;29.90;5.87;;;20.00;97.20;;;;;;1707792;28;20205;-72
2023/06/13 06:13:57;;;;;;;27.10;5.03;;;20.00;97.20;;;;;;1709835;28;20201;-72
2023/06/13 06:14:49;;;;;;;20.60;5.40;;;20.00;97.20;;;;;;1710983;28;20213;-72
2023/06/13 06:15:40;;;;;;;17.10;5.20;;;20.00;97.20;;;;;;1707782;28;20682;-72
2023/06/13 06:16:32;;;;;;;10.37;3.70;;;20.00;97.20;;;;;;1708185;28;20550;-71
2023/06/13 06:17:23;;;;;;;3.95;3.40;;;20.10;97.20;;;;;;1708039;29;20438;-72
2023/06/13 06:18:18;;;;;;;26.38;5.97;;;20.00;97.20;;;;;;1707667;29;20641;-72
2023/06/13 06:19:09;;;;;;;13.15;4.50;;;20.10;97.20;;;;;;1708209;29;20199;-72
2023/06/13 06:20:03;;;;;;;14.23;3.63;;;20.10;97.20;;;;;;1708121;29;20229;-72
2023/06/13 06:20:53;;;;;;;15.00;4.05;;;20.10;97.20;;;;;;1708052;29;20483;-72
2023/06/13 06:21:45;;;;;;;12.30;4.40;;;20.10;97.20;;;;;;1708184;28;20239;-72
2023/06/13 06:22:36;;;;;;;19.50;4.65;;;20.10;97.20;;;;;;1708112;29;20217;-72
2023/06/13 06:23:27;;;;;;;5.60;3.50;;;20.10;97.20;;;;;;1708145;29;20293;-72
2023/06/13 06:24:18;;;;;;;11.80;3.95;;;20.10;97.20;;;;;;1708161;28;20441;-72
2023/06/13 06:25:12;;;;;;;10.33;5.20;;;20.10;97.20;;;;;;1708862;28;20202;-72
2023/06/13 06:26:03;;;;;;;13.32;4.60;;;20.10;97.20;;;;;;1711840;28;20198;-74
2023/06/13 06:26:54;;;;;;;10.03;3.93;;;20.10;97.20;;;;;;1711256;28;20232;-72
2023/06/13 06:27:46;;;;;;;21.02;4.03;;;20.10;97.20;;;;;;1710828;28;20249;-73
2023/06/13 06:28:38;;;;;;;13.93;4.38;;;20.10;97.20;;;;;;1707148;28;20564;-74
2023/06/13 06:29:31;;;;;;;17.05;4.88;;;20.20;97.20;;;;;;1707575;28;20682;-74
2023/06/13 06:30:22;;;;;;;3.30;3.00;;;20.20;97.20;;;;;;1710499;28;20986;-72
2023/06/13 06:31:13;;;;;;;22.48;4.93;;;20.20;97.20;;;;;;1710865;28;20203;-73
2023/06/13 06:32:06;;;;;;;29.10;5.60;;;20.20;97.20;;;;;;1710899;28;20194;-72
2023/06/13 06:32:57;;;;;;;4.30;3.53;;;20.20;97.20;;;;;;1707573;28;20287;-72
2023/06/13 06:33:50;;;;;;;8.73;4.53;;;20.20;97.20;;;;;;1707686;28;20222;-72
2023/06/13 06:34:41;;;;;;;36.13;6.43;;;20.20;97.20;;;;;;1711011;28;20217;-72
2023/06/13 06:35:32;;;;;;;21.13;4.77;;;20.30;97.20;;;;;;1707804;28;20286;-76
2023/06/13 06:36:23;;;;;;;32.10;5.72;;;20.30;97.20;;;;;;1708883;28;20199;-72
2023/06/13 06:37:15;;;;;;;30.13;5.90;;;20.30;97.20;;;;;;1707520;28;20226;-73
2023/06/13 06:38:06;;;;;;;26.90;7.22;;;20.40;97.20;;;;;;1706777;28;20813;-72
2023/06/13 06:38:58;;;;;;;7.37;3.50;;;20.40;97.20;;;;;;1707139;28;20639;-73
2023/06/13 06:39:49;;;;;;;15.25;4.70;;;20.40;97.20;;;;;;1712617;28;20248;-72
2023/06/13 06:40:40;;;;;;;8.83;3.67;;;20.40;97.20;;;;;;1714671;28;20225;-72
2023/06/13 06:41:31;;;;;;;14.73;4.72;;;20.40;97.20;;;;;;1714360;28;20205;-72
2023/06/13 06:42:23;;;;;;;10.00;3.60;;;20.40;97.20;;;;;;1711605;28;20194;-72
2023/06/13 06:43:14;;;;;;;16.23;4.40;;;20.40;97.20;;;;;;1707951;28;20206;-72
2023/06/13 06:44:05;;;;;;;14.30;4.13;;;20.50;97.20;;;;;;1712621;28;20204;-72
2023/06/13 06:44:56;;;;;;;12.35;3.60;;;20.50;97.20;;;;;;1714652;28;20713;-72
2023/06/13 06:45:48;;;;;;;7.80;3.70;;;20.50;97.20;;;;;;1710772;28;20202;-73
2023/06/13 06:46:38;;;;;;;13.20;4.75;;;20.50;97.20;;;;;;1710740;28;20237;-72
2023/06/13 06:47:30;;;;;;;27.73;5.70;;;20.50;97.20;;;;;;1710653;28;20422;-72
2023/06/13 06:48:21;;;;;;;7.25;3.45;;;20.60;97.20;;;;;;1707030;28;20238;-72
2023/06/13 06:49:14;;;;;;;18.67;4.83;;;20.60;97.20;;;;;;1707497;28;20290;-72
2023/06/13 06:50:05;;;;;;;22.20;5.88;;;20.70;97.20;;;;;;1711648;28;20210;-72
2023/06/13 06:50:57;;;;;;;9.45;4.22;;;20.70;97.20;;;;;;1708809;28;20218;-73
2023/06/13 06:51:48;;;;;;;5.63;3.03;;;20.80;97.20;;;;;;1709751;28;20656;-72
2023/06/13 06:52:39;;;;;;;6.30;3.80;;;20.80;97.20;;;;;;1714304;28;20201;-72
2023/06/13 06:53:30;;;;;;;4.35;3.65;;;20.80;97.20;;;;;;1710916;28;20659;-72
2023/06/13 06:54:22;;;;;;;11.33;5.03;;;20.80;97.20;;;;;;1714717;28;20626;-72
2023/06/13 06:55:13;;;;;;;364.33;44.28;;;20.90;97.20;;;;;;1709152;28;20199;-72
2023/06/13 06:56:04;;;;;;;1426.72;182.77;;;20.90;97.20;;;;;;1707559;28;20214;-72
2023/06/13 06:56:56;;;;;;;130.57;20.43;;;20.90;97.20;;;;;;1707501;28;20201;-72
2023/06/13 06:57:47;;;;;;;174.88;19.60;;;20.90;97.20;;;;;;1707418;28;20682;-72
2023/06/13 06:58:39;;;;;;;53.83;11.02;;;20.90;97.20;;;;;;1706907;28;20269;-72
2023/06/13 06:59:30;;;;;;;85.93;12.48;;;20.90;97.20;;;;;;1710448;28;21412;-73
2023/06/13 07:00:23;;;;;;;388.03;39.53;;;20.90;97.20;;;;;;1708287;28;20194;-72
2023/06/13 07:01:14;;;;;;;246.90;28.92;;;20.90;97.20;;;;;;1707379;28;20477;-72
2023/06/13 07:02:06;;;;;;;71.70;11.93;;;20.90;97.20;;;;;;1707609;28;20197;-72
2023/06/13 07:02:56;;;;;;;10.95;4.18;;;20.90;97.20;;;;;;1707804;28;20454;-72
2023/06/13 07:03:48;;;;;;;5.20;3.30;;;20.90;97.20;;;;;;1708013;29;20202;-72
2023/06/13 07:04:41;;;;;;;5.47;3.58;;;20.90;97.20;;;;;;1707880;29;20206;-72
2023/06/13 07:05:32;;;;;;;6.32;3.92;;;20.90;97.20;;;;;;1707851;28;20202;-72
2023/06/13 07:06:23;;;;;;;4.53;3.53;;;20.90;97.20;;;;;;1707201;28;20202;-72
2023/06/13 07:07:15;;;;;;;9.27;3.67;;;20.90;97.20;;;;;;1713473;28;20198;-72
2023/06/13 07:08:06;;;;;;;5.30;3.70;;;20.90;97.20;;;;;;1712793;28;20964;-72
2023/06/13 07:08:58;;;;;;;6.28;4.43;;;20.90;97.20;;;;;;1714379;28;20208;-72
2023/06/13 07:09:49;;;;;;;7.10;3.90;;;20.90;97.20;;;;;;1713953;28;20240;-72
2023/06/13 07:10:41;;;;;;;18.33;3.80;;;20.90;97.20;;;;;;1714386;28;20232;-72
2023/06/13 07:11:31;;;;;;;10.35;3.72;;;21.00;97.20;;;;;;1714476;28;20212;-72
2023/06/13 07:12:23;;;;;;;10.83;4.10;;;21.00;97.20;;;;;;1714598;28;20277;-72
2023/06/13 07:13:14;;;;;;;8.88;3.55;;;21.00;97.20;;;;;;1714569;28;20603;-72
2023/06/13 07:14:06;;;;;;;8.80;4.37;;;21.10;97.20;;;;;;1714583;28;20605;-72
2023/06/13 07:14:56;;;;;;;4.70;3.80;;;21.10;97.20;;;;;;1714563;28;20233;-72
2023/06/13 07:15:48;;;;;;;3.73;3.43;;;21.10;97.20;;;;;;1714643;28;20216;-73
2023/06/13 07:16:39;;;;;;;9.00;4.40;;;21.10;97.20;;;;;;1714603;28;20601;-72
2023/06/13 07:17:31;;;;;;;29.33;4.32;;;21.10;97.20;;;;;;1714120;28;20662;-72
2023/06/13 07:18:22;;;;;;;47.55;9.73;;;21.20;97.20;;;;;;1713961;28;20233;-72
2023/06/13 07:19:14;;;;;;;12.50;4.40;;;21.20;97.20;;;;;;1713213;28;20694;-72
2023/06/13 07:20:08;;;;;;;5.60;3.45;;;21.20;97.20;;;;;;1714566;28;20568;-72
2023/06/13 07:20:59;;;;;;;7.63;3.80;;;21.20;97.20;;;;;;1714502;28;20226;-72
2023/06/13 07:21:50;;;;;;;5.43;4.15;;;21.20;97.20;;;;;;1714565;28;20220;-72
2023/06/13 07:22:42;;;;;;;3.43;3.07;;;21.30;97.20;;;;;;1714509;28;20224;-72
2023/06/13 07:23:33;;;;;;;4.55;3.50;;;21.30;97.20;;;;;;1714459;28;20206;-72
2023/06/13 07:24:25;;;;;;;18.33;4.47;;;21.30;97.20;;;;;;1714556;28;20650;-72
2023/06/13 07:25:15;;;;;;;8.18;3.85;;;21.30;97.20;;;;;;1714344;28;20232;-72
2023/06/13 07:26:07;;;;;;;11.13;4.70;;;21.40;97.20;;;;;;1714529;28;20205;-72
2023/06/13 07:26:58;;;;;;;10.27;3.75;;;21.40;97.20;;;;;;1714427;28;20217;-72
2023/06/13 07:27:49;;;;;;;6.30;3.30;;;21.40;97.20;;;;;;1714209;28;20222;-72
2023/06/13 07:28:40;;;;;;;6.40;3.60;;;21.50;97.20;;;;;;1713955;28;20202;-72
2023/06/13 07:29:32;;;;;;;9.33;4.10;;;21.50;97.20;;;;;;1714405;28;20216;-72
2023/06/13 07:30:23;;;;;;;9.25;4.90;;;21.50;97.20;;;;;;1714212;28;20217;-72
2023/06/13 07:31:14;;;;;;;9.13;5.10;;;21.50;97.20;;;;;;1714432;28;20708;-72
2023/06/13 07:32:06;;;;;;;5.07;3.92;;;21.60;97.20;;;;;;1714513;28;20229;-72
2023/06/13 07:32:58;;;;;;;4.13;3.58;;;21.60;97.20;;;;;;1714377;28;20229;-72
2023/06/13 07:33:50;;;;;;;3.33;3.03;;;21.60;97.20;;;;;;1714403;28;20206;-72
2023/06/13 07:34:42;;;;;;;5.25;3.88;;;21.60;97.20;;;;;;1714465;28;20273;-72
2023/06/13 07:35:34;;;;;;;5.22;3.67;;;21.70;97.20;;;;;;1714275;28;20213;-72
2023/06/13 07:36:27;;;;;;;5.90;3.80;;;21.70;97.20;;;;;;1714475;28;20205;-72
2023/06/13 07:37:19;;;;;;;7.25;4.07;;;21.70;97.20;;;;;;1714133;28;20204;-73
2023/06/13 07:38:11;;;;;;;7.13;3.67;;;21.70;97.20;;;;;;1713829;28;20730;-72
2023/06/13 07:39:09;;;;;;;7.40;4.05;;;21.70;97.20;;;;;;1714340;28;20673;-72
2023/06/13 07:40:03;;;;;;;5.55;2.95;;;21.70;97.20;;;;;;1714308;28;20225;-72
2023/06/13 07:40:54;;;;;;;11.43;4.25;;;21.70;97.20;;;;;;1714203;28;20232;-72
2023/06/13 07:41:46;;;;;;;10.10;4.73;;;21.80;97.20;;;;;;1714456;28;20229;-72
2023/06/13 07:42:37;;;;;;;8.07;4.10;;;21.80;97.20;;;;;;1714419;28;20308;-72
2023/06/13 07:43:29;;;;;;;9.83;3.60;;;21.80;97.20;;;;;;1714331;28;20202;-72
2023/06/13 07:44:21;;;;;;;4.22;3.63;;;21.80;97.20;;;;;;1714405;28;20198;-72
2023/06/13 07:45:14;;;;;;;7.32;3.97;;;21.90;97.20;;;;;;1714408;28;20578;-72
2023/06/13 07:46:06;;;;;;;3.75;3.30;;;21.90;97.20;;;;;;1714401;28;20210;-72
2023/06/13 07:46:57;;;;;;;6.85;3.63;;;21.90;97.20;;;;;;1714294;28;20206;-72
2023/06/13 07:47:48;;;;;;;8.35;3.35;;;22.00;97.20;;;;;;1714237;28;20212;-72
2023/06/13 07:48:40;;;;;;;6.83;3.40;;;22.00;97.20;;;;;;1713804;28;20680;-72
2023/06/13 07:49:30;;;;;;;10.60;3.95;;;22.00;97.20;;;;;;1714255;28;20217;-72
2023/06/13 07:50:23;;;;;;;16.43;4.40;;;22.00;97.20;;;;;;1714173;28;20662;-72
2023/06/13 07:51:15;;;;;;;14.82;4.00;;;22.10;97.20;;;;;;1714297;28;20471;-72
2023/06/13 07:52:08;;;;;;;23.92;5.18;;;22.10;97.20;;;;;;1714306;28;20233;-72
2023/06/13 07:52:58;;;;;;;10.77;3.95;;;22.10;97.20;;;;;;1714216;28;20263;-72
2023/06/13 07:53:50;;;;;;;12.63;4.43;;;22.10;97.20;;;;;;1714277;28;20264;-72
2023/06/13 07:54:41;;;;;;;7.07;4.15;;;22.20;97.20;;;;;;1714245;28;20209;-72
2023/06/13 07:55:33;;;;;;;6.50;3.90;;;22.20;97.20;;;;;;1714310;28;20206;-72
2023/06/13 07:56:24;;;;;;;7.15;3.63;;;22.20;97.20;;;;;;1714322;28;20225;-72
2023/06/13 07:57:16;;;;;;;7.43;3.70;;;22.20;97.20;;;;;;1714084;28;20201;-72
2023/06/13 07:58:07;;;;;;;19.88;4.30;;;22.20;97.20;;;;;;1713776;28;20453;-72
2023/06/13 07:58:59;;;;;;;14.37;4.60;;;22.30;97.20;;;;;;1714243;28;20198;-72
2023/06/13 07:59:50;;;;;;;12.27;4.07;;;22.30;97.20;;;;;;1714150;28;20209;-72
2023/06/13 08:00:41;;;;;;;6.10;3.10;;;22.30;97.20;;;;;;1714268;28;20226;-72
2023/06/13 08:01:32;;;;;;;4.85;3.40;;;22.30;97.20;;;;;;1714245;28;20233;-72
2023/06/13 08:02:25;;;;;;;9.30;3.97;;;22.30;97.20;;;;;;1714260;28;20196;-72
2023/06/13 08:03:16;;;;;;;10.15;3.20;;;22.30;97.20;;;;;;1714255;28;20674;-72
2023/06/13 08:04:08;;;;;;;12.50;4.07;;;22.30;97.20;;;;;;1714209;28;20587;-72
2023/06/13 08:04:59;;;;;;;6.80;3.85;;;22.30;97.20;;;;;;1714208;28;20670;-72
2023/06/13 08:05:51;;;;;;;5.88;3.40;;;22.30;97.20;;;;;;1714201;28;20201;-72
2023/06/13 08:06:43;;;;;;;6.45;3.70;;;22.30;97.20;;;;;;1714287;28;20693;-72
2023/06/13 08:07:35;;;;;;;8.27;3.50;;;22.30;97.20;;;;;;1713928;28;20594;-72
2023/06/13 08:08:26;;;;;;;4.70;3.83;;;22.40;97.20;;;;;;1713705;28;20206;-72
2023/06/13 08:09:18;;;;;;;10.13;4.20;;;22.40;97.20;;;;;;1714020;28;20198;-72
2023/06/13 08:10:09;;;;;;;10.65;3.50;;;22.40;97.20;;;;;;1714243;28;20202;-72
2023/06/13 08:11:00;;;;;;;4.47;3.27;;;22.40;97.20;;;;;;1714095;28;20249;-72
2023/06/13 08:11:51;;;;;;;9.95;4.15;;;22.40;97.20;;;;;;1714082;28;20334;-72
2023/06/13 08:12:43;;;;;;;3.90;3.23;;;22.50;97.20;;;;;;1714346;28;20201;-72
2023/06/13 08:13:34;;;;;;;5.28;3.45;;;22.50;97.20;;;;;;1714071;28;20209;-72
2023/06/13 08:14:26;;;;;;;11.97;4.47;;;22.50;97.20;;;;;;1714276;28;20236;-72
2023/06/13 08:15:16;;;;;;;11.48;4.25;;;22.60;97.20;;;;;;1714251;28;20202;-72
2023/06/13 08:16:08;;;;;;;24.70;5.70;;;22.60;97.20;;;;;;1714161;28;20204;-72
2023/06/13 08:16:59;;;;;;;5.85;3.58;;;22.60;97.20;;;;;;1714118;28;20214;-72
2023/06/13 08:17:51;;;;;;;8.47;3.67;;;22.60;97.20;;;;;;1713873;28;20214;-72
2023/06/13 08:18:43;;;;;;;10.18;4.13;;;22.60;97.20;;;;;;1713673;28;20348;-72
2023/06/13 08:19:34;;;;;;;6.38;3.42;;;22.60;97.20;;;;;;1712777;28;20575;-72
2023/06/13 08:20:25;;;;;;;3.70;3.40;;;22.70;97.20;;;;;;1714114;28;20658;-72
2023/06/13 08:21:17;;;;;;;7.80;3.90;;;22.70;97.20;;;;;;1714152;28;20676;-72
2023/06/13 08:22:09;;;;;;;6.25;3.55;;;22.70;97.20;;;;;;1714147;28;20202;-72
2023/06/13 08:23:01;;;;;;;8.63;3.60;;;22.80;97.20;;;;;;1714182;28;20618;-72
2023/06/13 08:23:51;;;;;;;6.43;4.15;;;22.80;97.20;;;;;;1714174;28;20209;-72
2023/06/13 08:24:43;;;;;;;5.60;3.67;;;22.80;97.20;;;;;;1709654;28;20200;-72
2023/06/13 08:25:34;;;;;;;3.70;3.35;;;22.80;97.20;;;;;;1707302;29;20210;-72
2023/06/13 08:26:26;;;;;;;9.47;3.60;;;22.80;97.20;;;;;;1707142;28;20190;-72
2023/06/13 08:27:16;;;;;;;5.85;3.47;;;22.80;97.20;;;;;;1710814;28;20665;-72
2023/06/13 08:28:08;;;;;;;7.93;4.10;;;22.80;97.20;;;;;;1712710;28;20657;-72
2023/06/13 08:28:59;;;;;;;10.38;8.55;;;22.80;97.20;;;;;;1714120;28;20205;-72
2023/06/13 08:29:51;;;;;;;6.90;4.90;;;22.80;97.20;;;;;;1713884;28;20210;-72
2023/06/13 08:30:42;;;;;;;3.88;3.58;;;22.90;97.20;;;;;;1713930;28;20480;-72
2023/06/13 08:31:34;;;;;;;6.63;4.30;;;22.90;97.20;;;;;;1714013;28;20673;-72
2023/06/13 08:32:25;;;;;;;5.78;3.80;;;22.90;97.20;;;;;;1714044;28;20217;-72
2023/06/13 08:33:16;;;;;;;4.13;3.77;;;23.00;97.20;;;;;;1714040;28;20205;-72
2023/06/13 08:34:07;;;;;;;5.63;3.83;;;23.00;97.20;;;;;;1714075;28;20278;-72
2023/06/13 08:35:00;;;;;;;4.27;3.87;;;23.00;97.20;;;;;;1714107;28;20221;-72
2023/06/13 08:35:50;;;;;;;5.93;4.50;;;23.10;97.20;;;;;;1714044;28;20206;-72
2023/06/13 08:36:42;;;;;;;10.03;4.50;;;23.10;97.20;;;;;;1714025;28;20206;-72
2023/06/13 08:37:34;;;;;;;5.38;3.97;;;23.10;97.20;;;;;;1713798;28;20280;-72
2023/06/13 08:38:26;;;;;;;4.35;3.90;;;23.20;97.20;;;;;;1713496;28;20213;-72
2023/06/13 08:39:17;;;;;;;7.32;3.80;;;23.20;97.20;;;;;;1713956;28;20233;-72
2023/06/13 08:40:10;;;;;;;4.20;3.80;;;23.30;97.20;;;;;;1714079;28;20205;-72
2023/06/13 08:41:01;;;;;;;6.93;4.35;;;23.30;97.20;;;;;;1714023;28;20267;-72
2023/06/13 08:41:54;;;;;;;8.97;4.50;;;23.30;97.20;;;;;;1714096;28;20260;-72
2023/06/13 08:42:45;;;;;;;8.18;4.10;;;23.30;97.20;;;;;;1714159;28;20666;-72
2023/06/13 08:43:38;;;;;;;8.23;4.18;;;23.40;97.20;;;;;;1713943;28;20201;-72
2023/06/13 08:44:29;;;;;;;8.43;4.55;;;23.50;97.20;;;;;;1714033;28;20255;-72
2023/06/13 08:45:20;;;;;;;9.17;4.50;;;23.50;97.20;;;;;;1713950;28;20221;-72
2023/06/13 08:46:12;;;;;;;10.88;4.20;;;23.50;97.20;;;;;;1713949;28;20960;-72
2023/06/13 08:47:04;;;;;;;6.60;3.40;;;23.50;97.20;;;;;;1714046;28;20193;-72
2023/06/13 08:47:55;;;;;;;5.40;4.18;;;23.60;97.20;;;;;;1713751;28;20210;-72
2023/06/13 08:48:47;;;;;;;6.85;3.80;;;23.70;97.20;;;;;;1713562;28;20588;-72
2023/06/13 08:49:38;;;;;;;9.43;3.95;;;23.70;97.20;;;;;;1713867;28;20210;-72
2023/06/13 08:50:29;;;;;;;5.77;3.53;;;23.70;97.20;;;;;;1713919;28;20237;-72
2023/06/13 08:51:22;;;;;;;10.38;3.80;;;23.80;97.20;;;;;;1713984;28;20448;-72
2023/06/13 08:52:14;;;;;;;10.13;4.05;;;23.90;97.20;;;;;;1713906;28;20256;-72
2023/06/13 08:53:09;;;;;;;8.23;3.95;;;23.90;97.20;;;;;;1714030;28;20206;-71
2023/06/13 08:54:02;;;;;;;4.70;4.15;;;23.90;97.20;;;;;;1713939;28;20209;-72
2023/06/13 08:54:57;;;;;;;4.93;3.40;;;23.90;97.20;;;;;;1713821;28;20202;-72
2023/06/13 08:55:49;;;;;;;5.45;4.05;;;23.90;97.20;;;;;;1713966;28;20237;-72
2023/06/13 08:56:41;;;;;;;12.40;3.92;;;23.90;97.20;;;;;;1714036;28;20231;-72
2023/06/13 08:57:32;;;;;;;4.63;3.80;;;23.90;97.20;;;;;;1713781;28;20525;-72
2023/06/13 08:58:27;;;;;;;6.90;4.32;;;24.00;97.20;;;;;;1713517;28;20551;-72
2023/06/13 08:59:23;;;;;;;4.13;3.72;;;24.00;97.20;;;;;;1713768;28;20655;-72
2023/06/13 09:00:16;;;;;;;7.32;4.80;;;24.10;97.20;;;;;;1713876;28;20201;-72
2023/06/13 09:01:09;;;;;;;5.25;3.30;;;24.10;97.20;;;;;;1713982;28;20201;-72
2023/06/13 09:02:01;;;;;;;7.75;4.15;;;24.10;97.20;;;;;;1713868;28;20206;-72
2023/06/13 09:02:55;;;;;;;4.75;3.72;;;24.10;97.20;;;;;;1713941;28;20202;-72
2023/06/13 09:03:47;;;;;;;5.10;3.90;;;24.20;97.20;;;;;;1713989;28;20441;-72
2023/06/13 09:04:39;;;;;;;5.13;4.03;;;24.20;97.20;;;;;;1713958;28;20205;-72
2023/06/13 09:05:31;;;;;;;10.57;4.65;;;24.20;97.20;;;;;;1713954;28;20735;-72
2023/06/13 09:06:23;;;;;;;7.43;4.30;;;24.20;97.20;;;;;;1713985;28;20202;-72
2023/06/13 09:07:17;;;;;;;5.22;3.28;;;24.20;97.20;;;;;;1713629;28;20616;-72
2023/06/13 09:08:10;;;;;;;8.25;3.67;;;24.20;97.20;;;;;;1713352;28;20252;-72
2023/06/13 09:09:02;;;;;;;7.50;3.53;;;24.30;97.20;;;;;;1713856;28;20202;-72
2023/06/13 09:09:54;;;;;;;4.10;3.65;;;24.30;97.20;;;;;;1713725;28;20208;-72
2023/06/13 09:10:46;;;;;;;3.90;3.57;;;24.40;97.20;;;;;;1713808;28;20257;-72
2023/06/13 09:11:37;;;;;;;3.85;3.45;;;24.40;97.20;;;;;;1713840;28;20445;-72
2023/06/13 09:12:28;;;;;;;6.95;3.95;;;24.40;97.20;;;;;;1713795;28;20608;-69
2023/06/13 09:13:22;;;;;;;4.80;3.90;;;24.50;97.20;;;;;;1713852;28;20213;-69
2023/06/13 09:14:15;;;;;;;5.55;3.70;;;24.50;97.20;;;;;;1713792;28;20488;-72
2023/06/13 09:15:07;;;;;;;4.45;4.05;;;24.60;97.20;;;;;;1713910;28;20205;-72
2023/06/13 09:15:59;;;;;;;5.82;4.60;;;24.60;97.20;;;;;;1713904;28;20197;-72
2023/06/13 09:16:51;;;;;;;6.82;3.60;;;24.70;97.20;;;;;;1713820;28;20217;-72
2023/06/13 09:17:43;;;;;;;4.90;3.55;;;24.70;97.20;;;;;;1713702;28;20565;-72
2023/06/13 09:18:36;;;;;;;4.13;3.72;;;24.80;97.20;;;;;;1713316;28;20224;-72
2023/06/13 09:19:28;;;;;;;4.50;3.60;;;24.90;97.20;;;;;;1712560;28;20266;-72
2023/06/13 09:20:19;;;;;;;5.38;4.38;;;24.90;97.20;;;;;;1713733;28;20201;-72
2023/06/13 09:21:10;;;;;;;6.90;4.10;;;25.00;97.20;;;;;;1713861;28;20287;-72
2023/06/13 09:22:01;;;;;;;4.78;3.63;;;25.00;97.20;;;;;;1713739;28;20234;-72
2023/06/13 09:22:53;;;;;;;10.83;4.50;;;25.00;97.20;;;;;;1713809;28;20201;-72
2023/06/13 09:23:46;;;;;;;4.70;3.60;;;25.10;97.20;;;;;;1713918;28;20700;-72
2023/06/13 09:24:38;;;;;;;8.52;4.15;;;25.10;97.20;;;;;;1713788;28;20217;-72
2023/06/13 09:25:31;;;;;;;5.43;3.78;;;25.10;97.20;;;;;;1713851;28;20208;-72
2023/06/13 09:26:23;;;;;;;4.57;4.00;;;25.10;97.20;;;;;;1713853;28;20194;-72
2023/06/13 09:27:14;;;;;;;8.73;4.20;;;25.20;97.20;;;;;;1713548;28;20209;-72
2023/06/13 09:28:29;;;;;;;9.38;4.03;;;25.20;97.20;;;;;;1713462;28;20504;-72